Startpagina
METAR-TAF:

METAR-TAF

Vliegvelden :

Flughafen Weeze

Weeze, Duitsland

breedte: 51-36-09N, lengte: 006-08-32E, hoogte: 32 m

Actueel weer

Dit bericht is 17 minuten geleden gemaakt, om 22:20 UTC
Wind 3 kt uit variabele richting
Temperatuur 3°C
Vochtigheid 100%
Druk 1029 hPa
Zicht: 8000 m

METAR: EDLV 162220Z VRB03KT 8000 NSC 03/03 Q1029

Tijdstip: 23:37 (22:37 UTC)

Verwachting

Dit bericht is 5 uur en het 37 minuten geleden gemaakt, om 17:00 UTC
Verwachting geldig van 16 om 18 UTC tot 17 om 18 UTC
Wind 5 kt uit het oosten
Zicht 10 km of meer
geen wolken onder 1500 m en geen cumulonimbus
Kans 30% :
Tijdelijke
van 17 om 06 UTC tot 17 om 08 UTC
Wind 3 kt uit variabele richting
Zicht: 4000 m
nevel
Tijdelijke
van 17 om 09 UTC tot 17 om 16 UTC
Wind 10 kt uit het oosten

TAF: EDLV 161700Z 1618/1718 08005KT CAVOK PROB30 TEMPO 1706/1708 VRB03KT 4000 BR TEMPO 1709/1716 08010KT

Waarnemingen en weersverwachtingen van meer dan 4000 vliegvelden (METAR en TAF).

De beschikbare stations zijn de gele en rode punten op de kaart.

Ga met uw muis naar het station om de naam te zien.

Klik dan om waarnemingen en weersverwachtingen te zien.

kaart wijzigen: klik op de groene knoppen met een zwart kruis om in te zoomen, op de groene knop met een streepje om uit te zoomen of op de groene pijlen voor aangrenzende kaarten.


METAR-TAF: